sensor_id;sensor_type;location;lat;lon;timestamp;P1;durP1;ratioP1;P2;durP2;ratioP2
789;SDS011;378;48.844;9.156;2022-08-21T00:01:51;4.70;;;2.03;;
789;SDS011;378;48.844;9.156;2022-08-21T00:04:18;5.65;;;2.20;;
789;SDS011;378;48.844;9.156;2022-08-21T00:06:46;4.03;;;1.80;;
789;SDS011;378;48.844;9.156;2022-08-21T00:09:13;4.28;;;1.80;;
789;SDS011;378;48.844;9.156;2022-08-21T00:11:40;4.10;;;1.60;;
789;SDS011;378;48.844;9.156;2022-08-21T00:14:07;6.30;;;2.03;;
789;SDS011;378;48.844;9.156;2022-08-21T00:16:35;4.05;;;2.20;;
789;SDS011;378;48.844;9.156;2022-08-21T00:19:03;4.90;;;1.98;;
789;SDS011;378;48.844;9.156;2022-08-21T00:21:31;4.20;;;2.15;;
789;SDS011;378;48.844;9.156;2022-08-21T00:24:00;6.03;;;1.65;;
789;SDS011;378;48.844;9.156;2022-08-21T00:26:27;5.28;;;1.50;;
789;SDS011;378;48.844;9.156;2022-08-21T00:28:54;4.85;;;1.58;;
789;SDS011;378;48.844;9.156;2022-08-21T00:31:21;3.30;;;1.55;;
789;SDS011;378;48.844;9.156;2022-08-21T00:33:48;4.72;;;1.70;;
789;SDS011;378;48.844;9.156;2022-08-21T00:36:15;6.88;;;1.75;;
789;SDS011;378;48.844;9.156;2022-08-21T00:38:42;3.95;;;1.85;;
789;SDS011;378;48.844;9.156;2022-08-21T00:41:10;5.93;;;1.98;;
789;SDS011;378;48.844;9.156;2022-08-21T00:43:38;4.63;;;1.73;;
789;SDS011;378;48.844;9.156;2022-08-21T00:46:05;4.25;;;2.05;;
789;SDS011;378;48.844;9.156;2022-08-21T00:48:33;6.97;;;1.52;;
789;SDS011;378;48.844;9.156;2022-08-21T00:51:02;6.13;;;1.90;;
789;SDS011;378;48.844;9.156;2022-08-21T00:53:33;3.80;;;1.70;;
789;SDS011;378;48.844;9.156;2022-08-21T00:56:03;5.38;;;1.88;;
789;SDS011;378;48.844;9.156;2022-08-21T00:58:34;5.28;;;1.80;;
789;SDS011;378;48.844;9.156;2022-08-21T01:01:03;7.03;;;1.73;;
789;SDS011;378;48.844;9.156;2022-08-21T01:03:32;3.50;;;1.50;;
789;SDS011;378;48.844;9.156;2022-08-21T01:05:59;5.50;;;1.95;;
789;SDS011;378;48.844;9.156;2022-08-21T01:08:27;7.10;;;2.05;;
789;SDS011;378;48.844;9.156;2022-08-21T01:10:55;8.90;;;2.13;;
789;SDS011;378;48.844;9.156;2022-08-21T01:13:23;4.30;;;1.95;;
789;SDS011;378;48.844;9.156;2022-08-21T01:15:53;4.80;;;2.33;;
789;SDS011;378;48.844;9.156;2022-08-21T01:18:21;4.65;;;1.70;;
789;SDS011;378;48.844;9.156;2022-08-21T01:21:00;10.50;;;2.30;;
789;SDS011;378;48.844;9.156;2022-08-21T01:23:29;3.85;;;1.77;;
789;SDS011;378;48.844;9.156;2022-08-21T01:25:56;5.10;;;1.95;;
789;SDS011;378;48.844;9.156;2022-08-21T01:28:23;5.68;;;2.10;;
789;SDS011;378;48.844;9.156;2022-08-21T01:30:50;4.15;;;2.00;;
789;SDS011;378;48.844;9.156;2022-08-21T01:33:19;6.05;;;1.85;;
789;SDS011;378;48.844;9.156;2022-08-21T01:35:48;6.53;;;2.00;;
789;SDS011;378;48.844;9.156;2022-08-21T01:38:17;7.47;;;1.92;;
789;SDS011;378;48.844;9.156;2022-08-21T01:40:44;8.90;;;2.00;;
789;SDS011;378;48.844;9.156;2022-08-21T01:43:11;5.63;;;2.15;;
789;SDS011;378;48.844;9.156;2022-08-21T01:45:38;6.85;;;2.15;;
789;SDS011;378;48.844;9.156;2022-08-21T01:48:05;5.70;;;2.05;;
789;SDS011;378;48.844;9.156;2022-08-21T01:50:32;8.15;;;1.92;;
789;SDS011;378;48.844;9.156;2022-08-21T01:52:59;5.75;;;2.20;;
789;SDS011;378;48.844;9.156;2022-08-21T01:55:27;4.78;;;1.75;;
789;SDS011;378;48.844;9.156;2022-08-21T01:57:54;4.20;;;1.70;;
789;SDS011;378;48.844;9.156;2022-08-21T02:00:23;2.70;;;1.77;;
789;SDS011;378;48.844;9.156;2022-08-21T02:02:50;6.72;;;2.22;;
789;SDS011;378;48.844;9.156;2022-08-21T02:05:17;5.40;;;2.00;;
789;SDS011;378;48.844;9.156;2022-08-21T02:07:46;5.30;;;2.00;;
789;SDS011;378;48.844;9.156;2022-08-21T02:10:16;5.93;;;2.00;;
789;SDS011;378;48.844;9.156;2022-08-21T02:12:47;6.53;;;1.92;;
789;SDS011;378;48.844;9.156;2022-08-21T02:15:15;3.92;;;1.60;;
789;SDS011;378;48.844;9.156;2022-08-21T02:17:47;6.25;;;2.05;;
789;SDS011;378;48.844;9.156;2022-08-21T02:20:16;6.07;;;2.15;;
789;SDS011;378;48.844;9.156;2022-08-21T02:22:44;4.82;;;1.98;;
789;SDS011;378;48.844;9.156;2022-08-21T02:25:11;3.83;;;1.92;;
789;SDS011;378;48.844;9.156;2022-08-21T02:27:39;4.22;;;2.00;;
789;SDS011;378;48.844;9.156;2022-08-21T02:30:10;6.82;;;2.35;;
789;SDS011;378;48.844;9.156;2022-08-21T02:32:38;4.55;;;1.95;;
789;SDS011;378;48.844;9.156;2022-08-21T02:35:06;5.40;;;2.00;;
789;SDS011;378;48.844;9.156;2022-08-21T02:37:34;7.45;;;2.08;;
789;SDS011;378;48.844;9.156;2022-08-21T02:40:08;7.45;;;2.28;;
789;SDS011;378;48.844;9.156;2022-08-21T02:42:36;3.45;;;2.03;;
789;SDS011;378;48.844;9.156;2022-08-21T02:45:04;3.95;;;2.30;;
789;SDS011;378;48.844;9.156;2022-08-21T02:47:33;6.90;;;2.40;;
789;SDS011;378;48.844;9.156;2022-08-21T02:50:00;7.07;;;1.98;;
789;SDS011;378;48.844;9.156;2022-08-21T02:52:26;4.38;;;1.90;;
789;SDS011;378;48.844;9.156;2022-08-21T02:54:54;4.95;;;2.40;;
789;SDS011;378;48.844;9.156;2022-08-21T02:57:21;6.40;;;2.28;;
789;SDS011;378;48.844;9.156;2022-08-21T02:59:47;5.72;;;2.53;;
789;SDS011;378;48.844;9.156;2022-08-21T03:02:14;5.35;;;2.40;;
789;SDS011;378;48.844;9.156;2022-08-21T03:04:42;6.60;;;2.20;;
789;SDS011;378;48.844;9.156;2022-08-21T03:07:09;7.90;;;2.58;;
789;SDS011;378;48.844;9.156;2022-08-21T03:09:36;5.90;;;2.03;;
789;SDS011;378;48.844;9.156;2022-08-21T03:12:03;4.30;;;2.30;;
789;SDS011;378;48.844;9.156;2022-08-21T03:14:30;5.60;;;2.25;;
789;SDS011;378;48.844;9.156;2022-08-21T03:16:57;7.10;;;2.20;;
789;SDS011;378;48.844;9.156;2022-08-21T03:19:24;4.75;;;2.42;;
789;SDS011;378;48.844;9.156;2022-08-21T03:21:52;7.50;;;2.60;;
789;SDS011;378;48.844;9.156;2022-08-21T03:24:19;7.50;;;2.67;;
789;SDS011;378;48.844;9.156;2022-08-21T03:26:46;5.80;;;2.58;;
789;SDS011;378;48.844;9.156;2022-08-21T03:29:13;4.93;;;2.10;;
789;SDS011;378;48.844;9.156;2022-08-21T03:31:40;4.47;;;2.55;;
789;SDS011;378;48.844;9.156;2022-08-21T03:34:07;7.07;;;2.80;;
789;SDS011;378;48.844;9.156;2022-08-21T03:36:34;5.07;;;2.10;;
789;SDS011;378;48.844;9.156;2022-08-21T03:39:02;7.57;;;2.55;;
789;SDS011;378;48.844;9.156;2022-08-21T03:41:30;6.93;;;2.63;;
789;SDS011;378;48.844;9.156;2022-08-21T03:43:57;4.07;;;2.63;;
789;SDS011;378;48.844;9.156;2022-08-21T03:46:24;4.43;;;2.33;;
789;SDS011;378;48.844;9.156;2022-08-21T03:48:51;8.95;;;2.85;;
789;SDS011;378;48.844;9.156;2022-08-21T03:51:18;7.03;;;2.92;;
789;SDS011;378;48.844;9.156;2022-08-21T03:53:45;6.93;;;2.85;;
789;SDS011;378;48.844;9.156;2022-08-21T03:56:13;6.47;;;2.80;;
789;SDS011;378;48.844;9.156;2022-08-21T03:58:41;4.80;;;2.65;;
789;SDS011;378;48.844;9.156;2022-08-21T04:01:10;7.28;;;2.92;;
789;SDS011;378;48.844;9.156;2022-08-21T04:03:37;9.63;;;2.80;;
789;SDS011;378;48.844;9.156;2022-08-21T04:06:05;6.55;;;2.65;;
789;SDS011;378;48.844;9.156;2022-08-21T04:08:32;6.60;;;2.80;;
789;SDS011;378;48.844;9.156;2022-08-21T04:11:00;7.00;;;3.00;;
789;SDS011;378;48.844;9.156;2022-08-21T04:13:28;5.65;;;2.65;;
789;SDS011;378;48.844;9.156;2022-08-21T04:15:55;5.60;;;2.83;;
789;SDS011;378;48.844;9.156;2022-08-21T04:18:23;8.02;;;2.90;;
789;SDS011;378;48.844;9.156;2022-08-21T04:20:50;6.15;;;2.80;;
789;SDS011;378;48.844;9.156;2022-08-21T04:23:19;7.43;;;2.80;;
789;SDS011;378;48.844;9.156;2022-08-21T04:25:46;6.93;;;2.90;;
789;SDS011;378;48.844;9.156;2022-08-21T04:28:13;6.75;;;2.83;;
789;SDS011;378;48.844;9.156;2022-08-21T04:30:42;5.85;;;2.63;;
789;SDS011;378;48.844;9.156;2022-08-21T04:33:09;10.85;;;3.03;;
789;SDS011;378;48.844;9.156;2022-08-21T04:35:36;5.18;;;2.95;;
789;SDS011;378;48.844;9.156;2022-08-21T04:38:03;6.82;;;2.70;;
789;SDS011;378;48.844;9.156;2022-08-21T04:40:30;4.93;;;2.88;;
789;SDS011;378;48.844;9.156;2022-08-21T04:42:57;5.80;;;2.60;;
789;SDS011;378;48.844;9.156;2022-08-21T04:45:29;8.18;;;3.00;;
789;SDS011;378;48.844;9.156;2022-08-21T04:47:59;6.20;;;3.00;;
789;SDS011;378;48.844;9.156;2022-08-21T04:50:29;8.75;;;3.17;;
789;SDS011;378;48.844;9.156;2022-08-21T04:52:58;7.40;;;3.03;;
789;SDS011;378;48.844;9.156;2022-08-21T04:55:26;6.82;;;3.08;;
789;SDS011;378;48.844;9.156;2022-08-21T04:57:53;6.75;;;3.05;;
789;SDS011;378;48.844;9.156;2022-08-21T05:00:21;4.38;;;2.80;;
789;SDS011;378;48.844;9.156;2022-08-21T05:02:49;5.10;;;2.72;;
789;SDS011;378;48.844;9.156;2022-08-21T05:05:20;4.10;;;2.63;;
789;SDS011;378;48.844;9.156;2022-08-21T05:07:47;6.63;;;3.13;;
789;SDS011;378;48.844;9.156;2022-08-21T05:10:15;6.95;;;2.63;;
789;SDS011;378;48.844;9.156;2022-08-21T05:12:42;5.05;;;2.60;;
789;SDS011;378;48.844;9.156;2022-08-21T05:15:10;6.43;;;2.42;;
789;SDS011;378;48.844;9.156;2022-08-21T05:17:38;4.88;;;2.25;;
789;SDS011;378;48.844;9.156;2022-08-21T05:20:06;5.38;;;2.63;;
789;SDS011;378;48.844;9.156;2022-08-21T05:22:34;4.53;;;2.17;;
789;SDS011;378;48.844;9.156;2022-08-21T05:25:01;5.72;;;2.13;;
789;SDS011;378;48.844;9.156;2022-08-21T05:27:29;6.55;;;2.47;;
789;SDS011;378;48.844;9.156;2022-08-21T05:29:56;6.53;;;2.22;;
789;SDS011;378;48.844;9.156;2022-08-21T05:32:24;5.05;;;2.15;;
789;SDS011;378;48.844;9.156;2022-08-21T05:34:52;5.60;;;2.28;;
789;SDS011;378;48.844;9.156;2022-08-21T05:37:19;5.22;;;2.35;;
789;SDS011;378;48.844;9.156;2022-08-21T05:39:48;7.40;;;2.28;;
789;SDS011;378;48.844;9.156;2022-08-21T05:42:15;2.92;;;2.00;;
789;SDS011;378;48.844;9.156;2022-08-21T05:44:42;9.75;;;2.55;;
789;SDS011;378;48.844;9.156;2022-08-21T05:47:09;4.20;;;2.10;;
789;SDS011;378;48.844;9.156;2022-08-21T05:49:37;7.15;;;2.28;;
789;SDS011;378;48.844;9.156;2022-08-21T05:52:04;7.85;;;2.35;;
789;SDS011;378;48.844;9.156;2022-08-21T05:54:31;5.95;;;2.35;;
789;SDS011;378;48.844;9.156;2022-08-21T05:56:59;5.85;;;2.47;;
789;SDS011;378;48.844;9.156;2022-08-21T05:59:26;5.03;;;2.30;;
789;SDS011;378;48.844;9.156;2022-08-21T06:01:53;5.40;;;2.40;;
789;SDS011;378;48.844;9.156;2022-08-21T06:04:20;5.45;;;1.98;;
789;SDS011;378;48.844;9.156;2022-08-21T06:06:47;3.78;;;2.08;;
789;SDS011;378;48.844;9.156;2022-08-21T06:09:14;4.90;;;2.10;;
789;SDS011;378;48.844;9.156;2022-08-21T06:11:41;7.03;;;2.17;;
789;SDS011;378;48.844;9.156;2022-08-21T06:14:09;4.10;;;2.28;;
789;SDS011;378;48.844;9.156;2022-08-21T06:16:39;5.10;;;2.30;;
789;SDS011;378;48.844;9.156;2022-08-21T06:19:06;4.95;;;2.40;;
789;SDS011;378;48.844;9.156;2022-08-21T06:21:33;6.93;;;2.40;;
789;SDS011;378;48.844;9.156;2022-08-21T06:24:00;5.05;;;1.88;;
789;SDS011;378;48.844;9.156;2022-08-21T06:26:26;6.35;;;2.17;;
789;SDS011;378;48.844;9.156;2022-08-21T06:28:54;3.97;;;2.25;;
789;SDS011;378;48.844;9.156;2022-08-21T06:31:24;4.43;;;2.05;;
789;SDS011;378;48.844;9.156;2022-08-21T06:33:52;4.93;;;1.80;;
789;SDS011;378;48.844;9.156;2022-08-21T06:36:19;5.88;;;1.85;;
789;SDS011;378;48.844;9.156;2022-08-21T06:38:47;6.32;;;2.03;;
789;SDS011;378;48.844;9.156;2022-08-21T06:41:14;4.22;;;1.95;;
789;SDS011;378;48.844;9.156;2022-08-21T06:43:41;3.55;;;1.98;;
789;SDS011;378;48.844;9.156;2022-08-21T06:46:07;5.72;;;2.03;;
789;SDS011;378;48.844;9.156;2022-08-21T06:48:36;7.15;;;2.20;;
789;SDS011;378;48.844;9.156;2022-08-21T06:51:03;7.75;;;2.15;;
789;SDS011;378;48.844;9.156;2022-08-21T06:53:30;5.32;;;1.95;;
789;SDS011;378;48.844;9.156;2022-08-21T06:55:57;6.35;;;2.10;;
789;SDS011;378;48.844;9.156;2022-08-21T06:58:24;4.38;;;2.10;;
789;SDS011;378;48.844;9.156;2022-08-21T07:00:51;6.15;;;1.75;;
789;SDS011;378;48.844;9.156;2022-08-21T07:03:19;6.72;;;2.33;;
789;SDS011;378;48.844;9.156;2022-08-21T07:05:48;5.30;;;2.17;;
789;SDS011;378;48.844;9.156;2022-08-21T07:08:16;5.00;;;2.17;;
789;SDS011;378;48.844;9.156;2022-08-21T07:10:43;8.48;;;2.00;;
789;SDS011;378;48.844;9.156;2022-08-21T07:13:10;8.55;;;2.25;;
789;SDS011;378;48.844;9.156;2022-08-21T07:15:38;6.60;;;2.28;;
789;SDS011;378;48.844;9.156;2022-08-21T07:18:05;7.60;;;2.60;;
789;SDS011;378;48.844;9.156;2022-08-21T07:20:32;9.52;;;2.80;;
789;SDS011;378;48.844;9.156;2022-08-21T07:23:02;7.75;;;2.05;;
789;SDS011;378;48.844;9.156;2022-08-21T07:25:32;9.25;;;2.42;;
789;SDS011;378;48.844;9.156;2022-08-21T07:27:59;7.53;;;2.70;;
789;SDS011;378;48.844;9.156;2022-08-21T07:30:26;5.72;;;2.20;;
789;SDS011;378;48.844;9.156;2022-08-21T07:32:53;8.35;;;2.25;;
789;SDS011;378;48.844;9.156;2022-08-21T07:35:20;11.40;;;3.05;;
789;SDS011;378;48.844;9.156;2022-08-21T07:37:48;6.10;;;2.40;;
789;SDS011;378;48.844;9.156;2022-08-21T07:40:17;7.95;;;2.67;;
789;SDS011;378;48.844;9.156;2022-08-21T07:42:44;8.57;;;2.80;;
789;SDS011;378;48.844;9.156;2022-08-21T07:45:14;11.85;;;3.15;;
789;SDS011;378;48.844;9.156;2022-08-21T07:47:42;6.13;;;2.55;;
789;SDS011;378;48.844;9.156;2022-08-21T07:50:10;11.40;;;2.58;;
789;SDS011;378;48.844;9.156;2022-08-21T07:52:38;6.45;;;3.00;;
789;SDS011;378;48.844;9.156;2022-08-21T07:55:05;7.97;;;3.15;;
789;SDS011;378;48.844;9.156;2022-08-21T07:57:35;7.68;;;2.58;;
789;SDS011;378;48.844;9.156;2022-08-21T08:00:02;7.93;;;2.95;;
789;SDS011;378;48.844;9.156;2022-08-21T08:02:30;9.70;;;2.67;;
789;SDS011;378;48.844;9.156;2022-08-21T08:04:58;9.25;;;3.15;;
789;SDS011;378;48.844;9.156;2022-08-21T08:07:26;8.30;;;2.63;;
789;SDS011;378;48.844;9.156;2022-08-21T08:09:53;6.88;;;2.83;;
789;SDS011;378;48.844;9.156;2022-08-21T08:12:20;9.88;;;2.97;;
789;SDS011;378;48.844;9.156;2022-08-21T08:14:48;9.45;;;2.75;;
789;SDS011;378;48.844;9.156;2022-08-21T08:17:15;11.30;;;3.13;;
789;SDS011;378;48.844;9.156;2022-08-21T08:19:45;9.40;;;2.95;;
789;SDS011;378;48.844;9.156;2022-08-21T08:22:13;7.00;;;2.63;;
789;SDS011;378;48.844;9.156;2022-08-21T08:24:40;8.05;;;2.90;;
789;SDS011;378;48.844;9.156;2022-08-21T08:27:07;7.60;;;2.67;;
789;SDS011;378;48.844;9.156;2022-08-21T08:32:04;8.25;;;3.10;;
789;SDS011;378;48.844;9.156;2022-08-21T08:34:32;6.20;;;2.85;;
789;SDS011;378;48.844;9.156;2022-08-21T08:36:59;7.43;;;2.92;;
789;SDS011;378;48.844;9.156;2022-08-21T08:39:26;8.57;;;3.20;;
789;SDS011;378;48.844;9.156;2022-08-21T08:41:54;7.97;;;3.10;;
789;SDS011;378;48.844;9.156;2022-08-21T08:44:25;5.63;;;2.58;;
789;SDS011;378;48.844;9.156;2022-08-21T08:46:52;9.70;;;2.83;;
789;SDS011;378;48.844;9.156;2022-08-21T08:49:22;10.32;;;3.20;;
789;SDS011;378;48.844;9.156;2022-08-21T08:51:54;11.10;;;2.80;;
789;SDS011;378;48.844;9.156;2022-08-21T08:54:27;6.82;;;2.60;;
789;SDS011;378;48.844;9.156;2022-08-21T08:56:57;9.63;;;3.28;;
789;SDS011;378;48.844;9.156;2022-08-21T08:59:27;7.30;;;2.95;;
789;SDS011;378;48.844;9.156;2022-08-21T09:02:01;6.53;;;2.95;;
789;SDS011;378;48.844;9.156;2022-08-21T09:04:30;6.63;;;3.30;;
789;SDS011;378;48.844;9.156;2022-08-21T09:06:59;9.85;;;3.00;;
789;SDS011;378;48.844;9.156;2022-08-21T09:09:38;6.35;;;2.95;;
789;SDS011;378;48.844;9.156;2022-08-21T09:12:15;8.00;;;2.72;;
789;SDS011;378;48.844;9.156;2022-08-21T09:14:55;5.70;;;2.63;;
789;SDS011;378;48.844;9.156;2022-08-21T09:20:26;10.25;;;2.78;;
789;SDS011;378;48.844;9.156;2022-08-21T09:23:04;12.77;;;2.80;;
789;SDS011;378;48.844;9.156;2022-08-21T09:25:49;6.93;;;2.90;;
789;SDS011;378;48.844;9.156;2022-08-21T09:28:30;5.93;;;2.60;;
789;SDS011;378;48.844;9.156;2022-08-21T09:30:59;7.07;;;2.70;;
789;SDS011;378;48.844;9.156;2022-08-21T09:33:29;10.13;;;3.10;;
789;SDS011;378;48.844;9.156;2022-08-21T09:35:57;7.28;;;2.80;;
789;SDS011;378;48.844;9.156;2022-08-21T09:38:25;9.65;;;3.10;;
789;SDS011;378;48.844;9.156;2022-08-21T09:40:58;5.68;;;2.50;;
789;SDS011;378;48.844;9.156;2022-08-21T09:43:27;6.63;;;2.80;;
789;SDS011;378;48.844;9.156;2022-08-21T09:46:02;11.73;;;2.95;;
789;SDS011;378;48.844;9.156;2022-08-21T09:48:39;7.85;;;2.60;;
789;SDS011;378;48.844;9.156;2022-08-21T09:51:13;9.23;;;2.70;;
789;SDS011;378;48.844;9.156;2022-08-21T09:53:42;12.45;;;3.50;;
789;SDS011;378;48.844;9.156;2022-08-21T09:56:19;6.38;;;2.58;;
789;SDS011;378;48.844;9.156;2022-08-21T09:59:15;9.40;;;3.00;;
789;SDS011;378;48.844;9.156;2022-08-21T10:01:45;11.30;;;2.95;;
789;SDS011;378;48.844;9.156;2022-08-21T10:04:13;8.60;;;2.70;;
789;SDS011;378;48.844;9.156;2022-08-21T10:06:46;10.18;;;2.50;;
789;SDS011;378;48.844;9.156;2022-08-21T10:09:18;9.75;;;2.70;;
789;SDS011;378;48.844;9.156;2022-08-21T10:11:49;10.77;;;2.83;;
789;SDS011;378;48.844;9.156;2022-08-21T10:14:30;10.82;;;2.92;;
789;SDS011;378;48.844;9.156;2022-08-21T10:17:09;8.05;;;2.72;;
789;SDS011;378;48.844;9.156;2022-08-21T10:19:42;8.50;;;3.15;;
789;SDS011;378;48.844;9.156;2022-08-21T10:22:22;8.45;;;2.88;;
789;SDS011;378;48.844;9.156;2022-08-21T10:25:02;11.10;;;3.15;;
789;SDS011;378;48.844;9.156;2022-08-21T10:27:37;10.35;;;2.72;;
789;SDS011;378;48.844;9.156;2022-08-21T10:30:13;8.60;;;2.70;;
789;SDS011;378;48.844;9.156;2022-08-21T10:32:53;5.90;;;2.63;;
789;SDS011;378;48.844;9.156;2022-08-21T10:35:27;8.68;;;2.47;;
789;SDS011;378;48.844;9.156;2022-08-21T10:38:05;12.07;;;2.75;;
789;SDS011;378;48.844;9.156;2022-08-21T10:40:51;6.32;;;2.72;;
789;SDS011;378;48.844;9.156;2022-08-21T10:43:27;9.77;;;2.95;;
789;SDS011;378;48.844;9.156;2022-08-21T10:46:02;7.20;;;2.60;;
789;SDS011;378;48.844;9.156;2022-08-21T10:48:42;8.38;;;2.60;;
789;SDS011;378;48.844;9.156;2022-08-21T10:51:16;9.18;;;2.42;;
789;SDS011;378;48.844;9.156;2022-08-21T10:53:54;6.20;;;2.50;;
789;SDS011;378;48.844;9.156;2022-08-21T10:56:27;8.77;;;2.75;;
789;SDS011;378;48.844;9.156;2022-08-21T10:59:02;6.63;;;2.53;;
789;SDS011;378;48.844;9.156;2022-08-21T11:01:40;9.90;;;2.60;;
789;SDS011;378;48.844;9.156;2022-08-21T11:04:15;5.70;;;2.70;;
789;SDS011;378;48.844;9.156;2022-08-21T11:06:46;6.95;;;2.85;;
789;SDS011;378;48.844;9.156;2022-08-21T11:09:20;4.75;;;2.58;;
789;SDS011;378;48.844;9.156;2022-08-21T11:11:52;8.30;;;2.58;;
789;SDS011;378;48.844;9.156;2022-08-21T11:14:24;6.35;;;2.92;;
789;SDS011;378;48.844;9.156;2022-08-21T11:17:00;10.25;;;2.70;;
789;SDS011;378;48.844;9.156;2022-08-21T11:19:33;6.90;;;2.53;;
789;SDS011;378;48.844;9.156;2022-08-21T11:22:06;9.18;;;2.67;;
789;SDS011;378;48.844;9.156;2022-08-21T11:24:42;8.23;;;2.30;;
789;SDS011;378;48.844;9.156;2022-08-21T11:27:17;8.85;;;2.80;;
789;SDS011;378;48.844;9.156;2022-08-21T11:29:50;13.38;;;2.60;;
789;SDS011;378;48.844;9.156;2022-08-21T11:35:13;7.45;;;2.33;;
789;SDS011;378;48.844;9.156;2022-08-21T11:37:58;7.25;;;2.40;;
789;SDS011;378;48.844;9.156;2022-08-21T11:40:37;8.52;;;2.50;;
789;SDS011;378;48.844;9.156;2022-08-21T11:43:17;6.70;;;2.38;;
789;SDS011;378;48.844;9.156;2022-08-21T11:45:50;8.23;;;2.65;;
789;SDS011;378;48.844;9.156;2022-08-21T11:48:25;4.07;;;2.13;;
789;SDS011;378;48.844;9.156;2022-08-21T11:51:03;4.97;;;2.28;;
789;SDS011;378;48.844;9.156;2022-08-21T11:53:38;6.07;;;2.60;;
789;SDS011;378;48.844;9.156;2022-08-21T11:56:18;4.07;;;2.13;;
789;SDS011;378;48.844;9.156;2022-08-21T11:58:48;14.00;;;2.95;;
789;SDS011;378;48.844;9.156;2022-08-21T12:01:20;9.73;;;2.53;;
789;SDS011;378;48.844;9.156;2022-08-21T12:03:53;7.30;;;2.22;;
789;SDS011;378;48.844;9.156;2022-08-21T12:06:29;6.65;;;2.42;;
789;SDS011;378;48.844;9.156;2022-08-21T12:08:58;5.95;;;2.20;;
789;SDS011;378;48.844;9.156;2022-08-21T12:11:28;4.55;;;2.30;;
789;SDS011;378;48.844;9.156;2022-08-21T12:13:56;4.93;;;2.25;;
789;SDS011;378;48.844;9.156;2022-08-21T12:16:28;6.60;;;2.28;;
789;SDS011;378;48.844;9.156;2022-08-21T12:19:04;6.00;;;2.40;;
789;SDS011;378;48.844;9.156;2022-08-21T12:21:32;7.95;;;2.30;;
789;SDS011;378;48.844;9.156;2022-08-21T12:24:02;7.07;;;2.33;;
789;SDS011;378;48.844;9.156;2022-08-21T12:26:33;6.50;;;2.33;;
789;SDS011;378;48.844;9.156;2022-08-21T12:31:58;6.85;;;2.42;;
789;SDS011;378;48.844;9.156;2022-08-21T12:34:30;5.82;;;2.22;;
789;SDS011;378;48.844;9.156;2022-08-21T12:37:02;5.20;;;2.10;;
789;SDS011;378;48.844;9.156;2022-08-21T12:39:32;7.07;;;2.60;;
789;SDS011;378;48.844;9.156;2022-08-21T12:42:06;5.40;;;2.40;;
789;SDS011;378;48.844;9.156;2022-08-21T12:44:42;5.90;;;2.53;;
789;SDS011;378;48.844;9.156;2022-08-21T12:47:14;6.43;;;2.42;;
789;SDS011;378;48.844;9.156;2022-08-21T12:49:48;3.75;;;2.10;;
789;SDS011;378;48.844;9.156;2022-08-21T12:52:21;6.28;;;2.10;;
789;SDS011;378;48.844;9.156;2022-08-21T12:54:50;5.70;;;2.17;;
789;SDS011;378;48.844;9.156;2022-08-21T12:57:19;7.30;;;2.35;;
789;SDS011;378;48.844;9.156;2022-08-21T12:59:53;4.53;;;2.08;;
789;SDS011;378;48.844;9.156;2022-08-21T13:02:22;8.23;;;2.15;;
789;SDS011;378;48.844;9.156;2022-08-21T13:04:51;3.63;;;2.10;;
789;SDS011;378;48.844;9.156;2022-08-21T13:07:22;5.00;;;2.00;;
789;SDS011;378;48.844;9.156;2022-08-21T13:09:55;7.20;;;2.30;;
789;SDS011;378;48.844;9.156;2022-08-21T13:12:26;4.97;;;2.35;;
789;SDS011;378;48.844;9.156;2022-08-21T13:14:55;6.38;;;2.25;;
789;SDS011;378;48.844;9.156;2022-08-21T13:17:24;5.40;;;2.33;;
789;SDS011;378;48.844;9.156;2022-08-21T13:19:53;4.57;;;2.28;;
789;SDS011;378;48.844;9.156;2022-08-21T13:22:21;7.20;;;2.40;;
789;SDS011;378;48.844;9.156;2022-08-21T13:24:50;6.72;;;2.17;;
789;SDS011;378;48.844;9.156;2022-08-21T13:27:19;6.20;;;2.50;;
789;SDS011;378;48.844;9.156;2022-08-21T13:29:59;4.57;;;2.10;;
789;SDS011;378;48.844;9.156;2022-08-21T13:32:29;7.80;;;2.35;;
789;SDS011;378;48.844;9.156;2022-08-21T13:34:59;5.00;;;2.30;;
789;SDS011;378;48.844;9.156;2022-08-21T13:37:37;6.25;;;2.55;;
789;SDS011;378;48.844;9.156;2022-08-21T13:40:07;7.32;;;2.10;;
789;SDS011;378;48.844;9.156;2022-08-21T13:42:38;5.15;;;2.30;;
789;SDS011;378;48.844;9.156;2022-08-21T13:45:11;5.50;;;2.30;;
789;SDS011;378;48.844;9.156;2022-08-21T13:47:41;6.88;;;2.42;;
789;SDS011;378;48.844;9.156;2022-08-21T13:50:10;6.20;;;2.35;;
789;SDS011;378;48.844;9.156;2022-08-21T13:52:46;4.22;;;1.88;;
789;SDS011;378;48.844;9.156;2022-08-21T13:55:16;5.35;;;2.40;;
789;SDS011;378;48.844;9.156;2022-08-21T13:57:43;6.53;;;2.30;;
789;SDS011;378;48.844;9.156;2022-08-21T14:00:13;4.10;;;2.10;;
789;SDS011;378;48.844;9.156;2022-08-21T14:02:44;6.82;;;2.53;;
789;SDS011;378;48.844;9.156;2022-08-21T14:05:14;5.28;;;2.13;;
789;SDS011;378;48.844;9.156;2022-08-21T14:07:45;5.32;;;2.00;;
789;SDS011;378;48.844;9.156;2022-08-21T14:10:14;4.70;;;2.10;;
789;SDS011;378;48.844;9.156;2022-08-21T14:12:46;7.30;;;2.03;;
789;SDS011;378;48.844;9.156;2022-08-21T14:15:17;7.70;;;2.22;;
789;SDS011;378;48.844;9.156;2022-08-21T14:17:48;7.03;;;2.40;;
789;SDS011;378;48.844;9.156;2022-08-21T14:20:25;7.32;;;2.20;;
789;SDS011;378;48.844;9.156;2022-08-21T14:22:53;4.53;;;2.00;;
789;SDS011;378;48.844;9.156;2022-08-21T14:25:27;4.15;;;2.05;;
789;SDS011;378;48.844;9.156;2022-08-21T14:27:57;4.45;;;2.20;;
789;SDS011;378;48.844;9.156;2022-08-21T15:10:34;5.53;;;2.08;;
789;SDS011;378;48.844;9.156;2022-08-21T15:13:02;4.20;;;1.90;;
789;SDS011;378;48.844;9.156;2022-08-21T15:15:29;4.22;;;2.10;;
789;SDS011;378;48.844;9.156;2022-08-21T15:17:58;5.28;;;2.08;;
789;SDS011;378;48.844;9.156;2022-08-21T15:20:25;6.22;;;2.10;;
789;SDS011;378;48.844;9.156;2022-08-21T15:22:52;4.38;;;1.85;;
789;SDS011;378;48.844;9.156;2022-08-21T15:25:19;5.03;;;2.13;;
789;SDS011;378;48.844;9.156;2022-08-21T15:27:47;4.93;;;1.85;;
789;SDS011;378;48.844;9.156;2022-08-21T15:30:14;4.57;;;1.92;;
789;SDS011;378;48.844;9.156;2022-08-21T15:32:41;4.07;;;2.20;;
789;SDS011;378;48.844;9.156;2022-08-21T15:35:08;5.53;;;2.00;;
789;SDS011;378;48.844;9.156;2022-08-21T15:37:36;3.83;;;1.85;;
789;SDS011;378;48.844;9.156;2022-08-21T15:40:03;3.22;;;1.90;;
789;SDS011;378;48.844;9.156;2022-08-21T15:42:31;5.28;;;2.25;;
789;SDS011;378;48.844;9.156;2022-08-21T15:44:59;4.65;;;2.08;;
789;SDS011;378;48.844;9.156;2022-08-21T15:47:28;4.63;;;1.98;;
789;SDS011;378;48.844;9.156;2022-08-21T15:49:56;5.22;;;2.20;;
789;SDS011;378;48.844;9.156;2022-08-21T15:52:23;6.25;;;2.10;;
789;SDS011;378;48.844;9.156;2022-08-21T15:54:50;5.47;;;2.10;;
789;SDS011;378;48.844;9.156;2022-08-21T15:57:18;7.38;;;2.05;;
789;SDS011;378;48.844;9.156;2022-08-21T15:59:46;6.13;;;2.00;;
789;SDS011;378;48.844;9.156;2022-08-21T16:02:18;4.18;;;1.85;;
789;SDS011;378;48.844;9.156;2022-08-21T16:04:51;3.53;;;1.90;;
789;SDS011;378;48.844;9.156;2022-08-21T16:07:18;7.82;;;1.90;;
789;SDS011;378;48.844;9.156;2022-08-21T16:09:45;4.95;;;1.90;;
789;SDS011;378;48.844;9.156;2022-08-21T16:12:14;3.70;;;1.92;;
789;SDS011;378;48.844;9.156;2022-08-21T16:14:45;4.57;;;1.77;;
789;SDS011;378;48.844;9.156;2022-08-21T16:17:12;4.30;;;2.05;;
789;SDS011;378;48.844;9.156;2022-08-21T16:19:40;2.90;;;1.75;;
789;SDS011;378;48.844;9.156;2022-08-21T16:22:07;4.97;;;2.00;;
789;SDS011;378;48.844;9.156;2022-08-21T16:24:34;3.70;;;1.80;;
789;SDS011;378;48.844;9.156;2022-08-21T16:27:01;4.63;;;1.98;;
789;SDS011;378;48.844;9.156;2022-08-21T16:29:33;3.97;;;2.20;;
789;SDS011;378;48.844;9.156;2022-08-21T16:32:02;3.83;;;1.90;;
789;SDS011;378;48.844;9.156;2022-08-21T16:34:30;5.97;;;1.92;;
789;SDS011;378;48.844;9.156;2022-08-21T16:36:59;3.70;;;1.83;;
789;SDS011;378;48.844;9.156;2022-08-21T16:39:26;3.70;;;2.10;;
789;SDS011;378;48.844;9.156;2022-08-21T16:41:53;4.68;;;2.03;;
789;SDS011;378;48.844;9.156;2022-08-21T16:44:20;5.88;;;2.20;;
789;SDS011;378;48.844;9.156;2022-08-21T16:46:47;4.25;;;2.10;;
789;SDS011;378;48.844;9.156;2022-08-21T16:49:15;3.97;;;1.90;;
789;SDS011;378;48.844;9.156;2022-08-21T16:51:42;6.07;;;1.88;;